Startpagina
METAR-TAF:

METAR-TAF

Vliegvelden :

Luchthaven Managua

Managua, Nicaragua

breedte: 12-09N, lengte: 086-10W, hoogte: 50 m

Actueel weer

Dit bericht is 1 uur en het 8 minuten geleden gemaakt, om 12:01 UTC
Wind 4 kt uit het zuidzuidoosten
Temperatuur 23°C
Vochtigheid 89%
Druk 1012 hPa
Zicht: 9000 m
Weinig wolken op 2100 ft
Heiigheid

METAR: MNMG 231201Z 15004KT 9000 FEW021 23/21 Q1011 A2987 HZ NOSIG

Tijdstip: 07:09 (13:09 UTC)

Verwachting

Dit bericht is 3 uur en het 4 minuten geleden gemaakt, om 10:05 UTC
Verwachting geldig van 23 om 12 UTC tot 24 om 12 UTC
Wind 6 kt uit het oostzuidoosten
Zicht 10 km of meer
Weinig wolken op 2200 ft
Verspreide wolken op 30000 ft
Wijzigt naar
van 23 om 14 UTC tot 23 om 16 UTC
Wind 12 kt uit het oosten
Verspreide wolken op 2200 ft

TAF: MNMG 231005Z 2312/2412 12006KT 9999 FEW022 SCT300 BECMG 2314/2316 08012KT SCT022

Waarnemingen en weersverwachtingen van meer dan 4000 vliegvelden (METAR en TAF).

De beschikbare stations zijn de gele en rode punten op de kaart.

Ga met uw muis naar het station om de naam te zien.

Klik dan om waarnemingen en weersverwachtingen te zien.

kaart wijzigen: klik op de groene knoppen met een zwart kruis om in te zoomen, op de groene knop met een streepje om uit te zoomen of op de groene pijlen voor aangrenzende kaarten.


METAR-TAF: